Time;durP1;ratioP1;P1;durP2;ratioP2;P2;SDS_P1;SDS_P2;PMS_P1;PMS_P2;Temp;Humidity;BMP_temperature;BMP_pressure;BME280_temperature;BME280_humidity;BME280_pressure;Samples;Min_cycle;Max_cycle;Signal;HPM_P1;HPM_P2
2022/07/22 00:01:52;;;;;;;1999.90;999.90;;;16.80;99.90;;;;;;5091951;28;20202;-60
2022/07/22 00:04:19;;;;;;;1999.90;999.90;;;16.80;99.90;;;;;;5091952;28;20216;-59
2022/07/22 00:06:46;;;;;;;1999.90;999.90;;;16.80;99.90;;;;;;5093289;28;20198;-60
2022/07/22 00:09:13;;;;;;;1999.90;999.90;;;16.80;99.90;;;;;;5095547;28;20207;-60
2022/07/22 00:11:40;;;;;;;1999.90;999.90;;;16.80;99.90;;;;;;5095344;28;20188;-60
2022/07/22 00:14:08;;;;;;;1999.90;999.90;;;16.80;99.90;;;;;;5095218;28;20700;-60
2022/07/22 00:16:35;;;;;;;1999.90;999.90;;;16.80;99.90;;;;;;5094851;28;20218;-61
2022/07/22 00:19:02;;;;;;;1999.90;999.90;;;16.80;99.90;;;;;;5095388;28;20554;-60
2022/07/22 00:21:29;;;;;;;1999.90;999.90;;;16.80;99.90;;;;;;5094916;28;20667;-61
2022/07/22 00:23:56;;;;;;;1999.90;999.90;;;16.80;99.90;;;;;;5095097;28;20743;-60
2022/07/22 00:26:24;;;;;;;1999.90;999.90;;;16.80;99.90;;;;;;5094923;28;20717;-60
2022/07/22 00:28:51;;;;;;;1999.90;999.90;;;16.70;99.90;;;;;;5094812;28;20213;-61
2022/07/22 00:31:19;;;;;;;1999.90;999.90;;;16.80;99.90;;;;;;5094762;28;20199;-61
2022/07/22 00:33:46;;;;;;;1999.90;999.90;;;16.80;99.90;;;;;;5095072;28;20202;-61
2022/07/22 00:36:13;;;;;;;1999.90;999.90;;;16.80;99.90;;;;;;5094730;28;20225;-60
2022/07/22 00:38:40;;;;;;;1999.90;999.90;;;16.80;99.90;;;;;;5094932;28;20197;-62
2022/07/22 00:41:07;;;;;;;1999.90;999.90;;;16.90;99.90;;;;;;5094662;28;20665;-60
2022/07/22 00:43:54;;;;;;;1999.90;999.90;;;16.80;99.90;;;;;;5094872;28;20191;-61
2022/07/22 00:46:23;;;;;;;1999.90;999.90;;;16.80;99.90;;;;;;5094508;28;20533;-60
2022/07/22 00:48:50;;;;;;;1999.90;999.90;;;16.70;99.90;;;;;;5094642;28;20203;-60
2022/07/22 00:51:18;;;;;;;1999.90;999.90;;;16.80;99.90;;;;;;5094633;28;20196;-61
2022/07/22 00:53:46;;;;;;;1999.90;999.90;;;16.90;99.90;;;;;;5094353;28;20198;-60
2022/07/22 00:56:14;;;;;;;1999.90;999.90;;;16.80;99.90;;;;;;5094674;28;20188;-61
2022/07/22 00:58:41;;;;;;;1999.90;999.90;;;16.80;99.90;;;;;;5094175;28;20963;-60
2022/07/22 01:01:09;;;;;;;1999.90;999.90;;;16.80;99.90;;;;;;5094542;28;20204;-60
2022/07/22 01:03:38;;;;;;;1999.90;999.90;;;16.80;99.90;;;;;;5094715;28;20205;-61
2022/07/22 01:06:06;;;;;;;1999.90;999.90;;;16.80;99.90;;;;;;5094110;28;20195;-60
2022/07/22 01:08:33;;;;;;;1999.90;999.90;;;16.80;99.90;;;;;;5094501;28;20196;-60
2022/07/22 01:11:08;;;;;;;1999.90;999.90;;;16.80;99.90;;;;;;5094595;28;20200;-60
2022/07/22 01:13:36;;;;;;;1999.90;999.90;;;16.90;99.90;;;;;;5093910;28;20658;-60
2022/07/22 01:16:03;;;;;;;1999.90;999.90;;;16.90;99.90;;;;;;5094201;28;20200;-61
2022/07/22 01:18:30;;;;;;;1999.90;999.90;;;16.90;99.90;;;;;;5093651;28;20208;-61
2022/07/22 01:20:59;;;;;;;1999.90;999.90;;;16.90;99.90;;;;;;5093870;28;20201;-60
2022/07/22 01:23:26;;;;;;;1999.90;999.90;;;16.90;99.90;;;;;;5094234;28;20560;-60
2022/07/22 01:25:53;;;;;;;1999.90;999.90;;;16.80;99.90;;;;;;5094108;28;20200;-61
2022/07/22 01:28:21;;;;;;;1999.90;999.90;;;16.80;99.90;;;;;;5093674;28;20691;-60
2022/07/22 01:30:49;;;;;;;1999.90;999.90;;;16.90;99.90;;;;;;5093631;28;20204;-60
2022/07/22 01:33:17;;;;;;;1999.90;999.90;;;16.80;99.90;;;;;;5093841;28;20200;-60
2022/07/22 01:35:44;;;;;;;1999.90;999.90;;;16.80;99.90;;;;;;5093652;28;20203;-60
2022/07/22 01:38:12;;;;;;;1999.90;999.90;;;16.80;99.90;;;;;;5093706;28;20206;-60
2022/07/22 01:40:40;;;;;;;1999.90;999.90;;;16.80;99.90;;;;;;5093737;28;20210;-60
2022/07/22 01:43:07;;;;;;;1999.90;999.90;;;16.80;99.90;;;;;;5093785;28;20234;-61
2022/07/22 01:45:35;;;;;;;1999.90;999.90;;;16.80;99.90;;;;;;5093374;28;20224;-60
2022/07/22 01:48:02;;;;;;;1999.90;999.90;;;16.80;99.90;;;;;;5093154;28;20224;-61
2022/07/22 01:50:29;;;;;;;1999.90;999.90;;;16.70;99.90;;;;;;5093601;28;20683;-60
2022/07/22 01:52:57;;;;;;;1999.90;999.90;;;16.70;99.90;;;;;;5093475;28;20210;-61
2022/07/22 01:55:26;;;;;;;1999.90;999.90;;;16.80;99.90;;;;;;5093502;28;20197;-62
2022/07/22 01:57:53;;;;;;;1999.90;999.90;;;16.70;99.90;;;;;;5093402;28;20565;-61
2022/07/22 02:00:20;;;;;;;1999.90;999.90;;;16.70;99.90;;;;;;5093045;28;20694;-60
2022/07/22 02:02:47;;;;;;;1999.90;999.90;;;16.70;99.90;;;;;;5093259;28;20199;-60
2022/07/22 02:05:15;;;;;;;1999.90;999.90;;;16.70;99.90;;;;;;5093401;28;20197;-59
2022/07/22 02:07:42;;;;;;;1999.90;999.90;;;16.80;99.90;;;;;;5092970;28;20237;-61
2022/07/22 02:10:09;;;;;;;1999.90;999.90;;;16.70;99.90;;;;;;5093230;28;20215;-61
2022/07/22 02:12:38;;;;;;;1999.90;999.90;;;16.70;99.90;;;;;;5093184;28;20192;-61
2022/07/22 02:15:06;;;;;;;1999.90;999.90;;;16.70;99.90;;;;;;5093424;28;20197;-61
2022/07/22 02:17:34;;;;;;;1999.90;999.90;;;16.70;99.90;;;;;;5092537;28;20215;-60
2022/07/22 02:20:01;;;;;;;1999.90;999.90;;;16.70;99.90;;;;;;5093118;28;20204;-61
2022/07/22 02:22:28;;;;;;;1999.90;999.90;;;16.60;99.90;;;;;;5092680;28;20195;-61
2022/07/22 02:24:55;;;;;;;1999.90;999.90;;;16.60;99.90;;;;;;5092954;28;20202;-61
2022/07/22 02:27:22;;;;;;;1999.90;999.90;;;16.60;99.90;;;;;;5092984;28;20200;-60
2022/07/22 02:29:51;;;;;;;1999.90;999.90;;;16.60;99.90;;;;;;5092044;28;20197;-60
2022/07/22 02:32:18;;;;;;;1999.90;999.90;;;16.60;99.90;;;;;;5092515;28;20209;-60
2022/07/22 02:34:45;;;;;;;1999.90;999.90;;;16.60;99.90;;;;;;5092543;28;20201;-60
2022/07/22 02:37:12;;;;;;;1999.90;999.90;;;16.60;99.90;;;;;;5092401;28;20250;-60
2022/07/22 02:39:39;;;;;;;1999.90;999.90;;;16.60;99.90;;;;;;5092545;28;20200;-60
2022/07/22 02:42:06;;;;;;;1999.90;999.90;;;16.60;99.90;;;;;;5092308;28;20198;-61
2022/07/22 02:44:33;;;;;;;1999.90;999.90;;;16.60;99.90;;;;;;5092676;28;20203;-61
2022/07/22 02:47:01;;;;;;;1999.90;999.90;;;16.70;99.90;;;;;;5092231;28;20199;-61
2022/07/22 02:49:28;;;;;;;1999.90;999.90;;;16.60;99.90;;;;;;5092109;28;20532;-60
2022/07/22 02:51:55;;;;;;;1999.90;999.90;;;16.60;99.90;;;;;;5092418;28;20202;-60
2022/07/22 02:54:23;;;;;;;1999.90;999.90;;;16.60;99.90;;;;;;5092308;28;20276;-60
2022/07/22 02:56:50;;;;;;;1999.90;999.90;;;16.60;99.90;;;;;;5092586;28;20203;-61
2022/07/22 02:59:17;;;;;;;1999.90;999.90;;;16.60;99.90;;;;;;5092761;28;20215;-60
2022/07/22 03:01:44;;;;;;;1999.90;999.90;;;16.60;99.90;;;;;;5092187;28;20201;-60
2022/07/22 03:04:12;;;;;;;1999.90;999.90;;;16.60;99.90;;;;;;5092234;28;20810;-59
2022/07/22 03:06:39;;;;;;;1999.90;999.90;;;16.70;99.90;;;;;;5092423;28;20194;-61
2022/07/22 03:09:06;;;;;;;1999.90;999.90;;;16.60;99.90;;;;;;5092382;28;20556;-61
2022/07/22 03:11:33;;;;;;;1999.90;999.90;;;16.60;99.90;;;;;;5092379;28;20191;-60
2022/07/22 03:14:00;;;;;;;1999.90;999.90;;;16.70;99.90;;;;;;5092128;28;20673;-60
2022/07/22 03:16:27;;;;;;;1999.90;999.90;;;16.70;99.90;;;;;;5091942;28;20259;-60
2022/07/22 03:18:54;;;;;;;1999.90;999.90;;;16.70;99.90;;;;;;5091967;28;20207;-61
2022/07/22 03:21:23;;;;;;;1999.90;999.90;;;16.70;99.90;;;;;;5091898;28;20209;-60
2022/07/22 03:23:53;;;;;;;1999.90;999.90;;;16.60;99.90;;;;;;5092113;28;20209;-61
2022/07/22 03:26:20;;;;;;;1999.90;999.90;;;16.60;99.90;;;;;;5092013;28;20219;-60
2022/07/22 03:28:47;;;;;;;1999.90;999.90;;;16.70;99.90;;;;;;5092030;28;20210;-61
2022/07/22 03:31:15;;;;;;;1999.90;999.90;;;16.70;99.90;;;;;;5091949;28;20674;-60
2022/07/22 03:33:42;;;;;;;1999.90;999.90;;;16.70;99.90;;;;;;5092192;28;20203;-60
2022/07/22 03:36:09;;;;;;;1999.90;999.90;;;16.70;99.90;;;;;;5091996;28;20275;-60
2022/07/22 03:38:38;;;;;;;1999.90;999.90;;;16.60;99.90;;;;;;5091812;28;20581;-61
2022/07/22 03:41:05;;;;;;;1999.90;999.90;;;16.70;99.90;;;;;;5094407;28;20192;-61
2022/07/22 03:43:32;;;;;;;1999.90;999.90;;;16.70;99.90;;;;;;5096049;28;20193;-61
2022/07/22 03:45:59;;;;;;;1999.90;999.90;;;16.70;99.90;;;;;;5096136;28;20198;-61
2022/07/22 03:48:27;;;;;;;1999.90;999.90;;;16.70;99.90;;;;;;5095509;28;20199;-61
2022/07/22 03:50:54;;;;;;;1999.90;999.90;;;16.70;99.90;;;;;;5095534;28;20231;-60
2022/07/22 03:53:21;;;;;;;1999.90;999.90;;;16.70;99.90;;;;;;5095540;28;20613;-61
2022/07/22 03:55:49;;;;;;;1999.90;999.90;;;16.70;99.90;;;;;;5095828;28;20210;-62
2022/07/22 03:58:17;;;;;;;1999.90;999.90;;;16.70;99.90;;;;;;5095741;28;20207;-60
2022/07/22 04:00:45;;;;;;;1999.90;999.90;;;16.70;99.90;;;;;;5095317;28;20696;-59
2022/07/22 04:03:12;;;;;;;1999.90;999.90;;;16.70;99.90;;;;;;5095662;28;20214;-60
2022/07/22 04:05:39;;;;;;;1999.90;999.90;;;16.70;99.90;;;;;;5095343;28;20205;-60
2022/07/22 04:08:06;;;;;;;1999.90;999.90;;;16.70;99.90;;;;;;5095211;28;20556;-60
2022/07/22 04:10:33;;;;;;;1999.90;999.90;;;16.70;99.90;;;;;;5095244;28;20211;-61
2022/07/22 04:13:01;;;;;;;1999.90;999.90;;;16.70;99.90;;;;;;5095461;28;20198;-60
2022/07/22 04:15:28;;;;;;;1999.90;999.90;;;16.70;99.90;;;;;;5095364;28;20208;-60
2022/07/22 04:17:55;;;;;;;1999.90;999.90;;;16.80;99.90;;;;;;5095324;28;20228;-60
2022/07/22 04:20:23;;;;;;;1999.90;999.90;;;16.80;99.90;;;;;;5095344;28;20190;-61
2022/07/22 04:22:50;;;;;;;1999.90;999.90;;;16.80;99.90;;;;;;5094929;28;20230;-61
2022/07/22 04:25:17;;;;;;;1999.90;999.90;;;16.80;99.90;;;;;;5095127;28;20243;-60
2022/07/22 04:27:44;;;;;;;1999.90;999.90;;;16.80;99.90;;;;;;5095048;28;20200;-60
2022/07/22 04:30:13;;;;;;;1999.90;999.90;;;16.80;99.90;;;;;;5094878;28;20191;-60
2022/07/22 04:32:40;;;;;;;1999.90;999.90;;;16.80;99.90;;;;;;5095080;28;20192;-61
2022/07/22 04:35:08;;;;;;;1999.90;999.90;;;16.80;99.90;;;;;;5095045;28;20194;-60
2022/07/22 04:37:35;;;;;;;1999.90;999.90;;;16.80;99.90;;;;;;5094505;28;20237;-60
2022/07/22 04:40:02;;;;;;;1999.90;999.90;;;16.80;99.90;;;;;;5094565;28;20230;-61
2022/07/22 04:42:29;;;;;;;1999.90;999.90;;;16.80;99.90;;;;;;5094923;28;20215;-61
2022/07/22 04:44:56;;;;;;;1999.90;999.90;;;16.80;99.90;;;;;;5094852;28;20201;-60
2022/07/22 04:47:24;;;;;;;1999.90;999.90;;;16.80;99.90;;;;;;5094804;28;20200;-60
2022/07/22 04:49:52;;;;;;;1999.90;999.90;;;16.90;99.90;;;;;;5094494;28;20199;-60
2022/07/22 04:52:19;;;;;;;1999.90;999.90;;;16.90;99.90;;;;;;5093688;28;20208;-60
2022/07/22 04:54:46;;;;;;;1999.90;999.90;;;16.90;99.90;;;;;;5094504;28;20214;-61
2022/07/22 04:57:13;;;;;;;1999.90;999.90;;;17.00;99.90;;;;;;5094294;28;20676;-60
2022/07/22 04:59:40;;;;;;;1999.90;999.90;;;17.00;99.90;;;;;;5094458;28;20208;-60
2022/07/22 05:02:08;;;;;;;1999.90;999.90;;;17.00;99.90;;;;;;5094227;28;20197;-60
2022/07/22 05:04:36;;;;;;;1999.90;999.90;;;17.00;99.90;;;;;;5094152;28;20208;-60
2022/07/22 05:07:03;;;;;;;1999.90;999.90;;;17.00;99.90;;;;;;5094139;28;20201;-60
2022/07/22 05:09:31;;;;;;;1999.90;999.90;;;17.00;99.90;;;;;;5094368;28;20197;-61
2022/07/22 05:11:58;;;;;;;1999.90;999.90;;;17.10;99.90;;;;;;5094072;28;20194;-61
2022/07/22 05:14:25;;;;;;;1999.90;999.90;;;17.10;99.90;;;;;;5094262;28;20199;-60
2022/07/22 05:16:52;;;;;;;1999.90;999.90;;;17.10;99.90;;;;;;5093811;28;20675;-61
2022/07/22 05:19:19;;;;;;;1999.90;999.90;;;17.10;99.90;;;;;;5094118;28;20573;-60
2022/07/22 05:21:47;;;;;;;1999.90;999.90;;;17.20;99.90;;;;;;5093785;28;20534;-60
2022/07/22 05:24:15;;;;;;;1999.90;999.90;;;17.20;99.90;;;;;;5094074;28;20215;-60
2022/07/22 05:26:42;;;;;;;1999.90;999.90;;;17.20;99.90;;;;;;5093675;28;20663;-61
2022/07/22 05:29:09;;;;;;;1999.90;999.90;;;17.30;99.90;;;;;;5093705;28;20762;-61
2022/07/22 05:31:36;;;;;;;1999.90;999.90;;;17.20;99.90;;;;;;5094076;28;20208;-60
2022/07/22 05:34:03;;;;;;;1999.90;999.90;;;17.30;99.90;;;;;;5093600;28;20541;-60
2022/07/22 05:36:30;;;;;;;1999.90;999.90;;;17.30;99.90;;;;;;5093615;28;20699;-60
2022/07/22 05:38:59;;;;;;;1999.90;999.90;;;17.40;99.90;;;;;;5093406;28;20682;-60
2022/07/22 05:41:26;;;;;;;1999.90;999.90;;;17.40;99.90;;;;;;5093698;28;20211;-59
2022/07/22 05:43:53;;;;;;;1999.90;999.90;;;17.40;99.90;;;;;;5093719;28;20206;-60
2022/07/22 05:46:20;;;;;;;1999.90;999.90;;;17.50;99.90;;;;;;5093517;28;20227;-60
2022/07/22 05:48:47;;;;;;;1999.90;999.90;;;17.50;99.90;;;;;;5093875;28;20186;-61
2022/07/22 05:51:15;;;;;;;1999.90;999.90;;;17.60;99.90;;;;;;5093594;28;20261;-61
2022/07/22 05:53:43;;;;;;;1999.90;999.90;;;17.70;99.90;;;;;;5093176;28;20216;-61
2022/07/22 05:56:11;;;;;;;1999.90;999.90;;;17.80;99.90;;;;;;5093185;28;20208;-62
2022/07/22 05:58:39;;;;;;;1999.90;999.90;;;17.80;99.90;;;;;;5093115;28;20217;-62
2022/07/22 06:01:06;;;;;;;1999.90;999.90;;;17.60;99.90;;;;;;5093354;28;20581;-62
2022/07/22 06:03:34;;;;;;;1999.90;999.90;;;17.50;99.90;;;;;;5092447;28;20227;-61
2022/07/22 06:06:02;;;;;;;1999.90;999.90;;;17.50;99.90;;;;;;5092787;28;20224;-61
2022/07/22 06:08:29;;;;;;;1999.90;999.90;;;17.50;99.90;;;;;;5092979;28;20695;-61
2022/07/22 06:10:57;;;;;;;1999.90;999.90;;;17.60;99.90;;;;;;5093227;28;20201;-61
2022/07/22 06:13:26;;;;;;;1999.90;999.90;;;17.50;99.90;;;;;;5092840;28;20205;-61
2022/07/22 06:15:53;;;;;;;1999.90;999.90;;;17.60;99.90;;;;;;5093164;28;20213;-61
2022/07/22 06:18:20;;;;;;;1999.90;999.90;;;17.70;99.90;;;;;;5092955;28;20209;-62
2022/07/22 06:20:47;;;;;;;1999.90;999.90;;;17.80;99.90;;;;;;5093023;28;20258;-61
2022/07/22 06:23:14;;;;;;;1999.90;999.90;;;18.00;99.90;;;;;;5093005;28;20914;-62
2022/07/22 06:25:42;;;;;;;1999.90;999.90;;;18.20;99.90;;;;;;5092974;28;20197;-62
2022/07/22 06:28:09;;;;;;;1999.90;999.90;;;18.30;99.90;;;;;;5092978;28;20216;-62
2022/07/22 06:30:38;;;;;;;1999.90;999.90;;;18.40;99.90;;;;;;5092874;28;20190;-62
2022/07/22 06:33:05;;;;;;;1999.90;999.90;;;18.60;99.90;;;;;;5092839;28;20216;-61
2022/07/22 06:35:33;;;;;;;1999.90;999.90;;;18.60;99.90;;;;;;5092830;28;20202;-61
2022/07/22 06:38:00;;;;;;;1999.90;999.90;;;18.60;99.90;;;;;;5092493;28;20620;-62
2022/07/22 06:40:27;;;;;;;1999.90;999.90;;;18.70;99.90;;;;;;5092700;28;20217;-62
2022/07/22 06:42:54;;;;;;;1999.90;999.90;;;18.70;99.90;;;;;;5092734;28;20207;-62
2022/07/22 06:45:23;;;;;;;1999.90;999.90;;;18.70;99.90;;;;;;5092794;28;20194;-62
2022/07/22 06:47:52;;;;;;;1999.90;999.90;;;18.70;99.90;;;;;;5091798;28;20206;-62
2022/07/22 06:50:19;;;;;;;1999.90;999.90;;;18.80;99.90;;;;;;5092336;28;20230;-62
2022/07/22 06:52:46;;;;;;;1999.90;999.90;;;18.80;99.90;;;;;;5092819;28;20200;-62
2022/07/22 06:55:13;;;;;;;1999.90;999.90;;;18.90;99.90;;;;;;5092422;28;20860;-62
2022/07/22 06:57:40;;;;;;;1999.90;999.90;;;18.90;99.90;;;;;;5092570;28;20210;-62
2022/07/22 07:00:09;;;;;;;1999.90;999.90;;;19.20;99.90;;;;;;5092452;28;20217;-61
2022/07/22 07:02:36;;;;;;;1999.90;999.90;;;19.40;99.90;;;;;;5091993;28;20266;-61
2022/07/22 07:05:06;;;;;;;1999.90;999.90;;;19.80;99.90;;;;;;5092077;28;20222;-60
2022/07/22 07:07:33;;;;;;;1999.90;999.90;;;19.80;99.90;;;;;;5092615;28;20197;-61
2022/07/22 07:10:00;;;;;;;1999.90;999.90;;;19.90;99.90;;;;;;5092504;28;20243;-62
2022/07/22 07:12:27;;;;;;;1999.90;999.90;;;20.20;99.90;;;;;;5092412;28;20198;-62
2022/07/22 07:14:54;;;;;;;1999.90;999.90;;;21.00;99.90;;;;;;5092488;28;20215;-62
2022/07/22 07:17:21;;;;;;;1999.90;999.90;;;21.60;99.90;;;;;;5096121;28;20204;-62
2022/07/22 07:19:48;;;;;;;1999.90;999.90;;;21.70;99.90;;;;;;5096393;28;20550;-62
2022/07/22 07:22:17;;;;;;;1999.90;999.90;;;21.20;99.90;;;;;;5096519;28;20194;-62
2022/07/22 07:24:44;;;;;;;1999.90;999.90;;;21.00;99.90;;;;;;5096110;28;20214;-62
2022/07/22 07:27:11;;;;;;;1999.90;999.90;;;20.90;99.90;;;;;;5096425;28;20220;-62
2022/07/22 07:29:38;;;;;;;1999.90;999.90;;;20.70;99.90;;;;;;5096052;28;20190;-62
2022/07/22 07:32:06;;;;;;;1999.90;999.90;;;20.50;99.90;;;;;;5096112;28;20247;-62
2022/07/22 07:34:33;;;;;;;1999.90;999.90;;;20.90;99.90;;;;;;5095947;28;20396;-61
2022/07/22 07:37:00;;;;;;;1999.90;999.90;;;21.00;99.90;;;;;;5095870;28;20234;-62
2022/07/22 07:39:29;;;;;;;1999.90;999.90;;;20.60;99.90;;;;;;5095799;28;20216;-62
2022/07/22 07:41:56;;;;;;;1999.90;999.90;;;20.60;99.90;;;;;;5095804;28;20206;-62
2022/07/22 07:44:23;;;;;;;1999.90;999.90;;;20.90;99.90;;;;;;5096036;28;20198;-62
2022/07/22 07:46:50;;;;;;;1999.90;999.90;;;20.70;99.90;;;;;;5095910;28;20196;-62
2022/07/22 07:49:17;;;;;;;1999.90;999.90;;;20.60;99.90;;;;;;5095945;28;20190;-62
2022/07/22 07:51:45;;;;;;;1999.90;999.90;;;20.60;99.90;;;;;;5095627;28;20198;-62
2022/07/22 07:54:12;;;;;;;1999.90;999.90;;;20.90;99.90;;;;;;5095551;28;20247;-62
2022/07/22 07:56:41;;;;;;;1999.90;999.90;;;22.00;99.90;;;;;;5095825;28;20203;-63
2022/07/22 07:59:08;;;;;;;1999.90;999.90;;;23.00;99.90;;;;;;5095516;28;20251;-62
2022/07/22 08:01:35;;;;;;;1999.90;999.90;;;24.30;99.90;;;;;;5095724;28;20208;-62
2022/07/22 08:04:02;;;;;;;1999.90;999.90;;;24.10;99.90;;;;;;5095740;28;20200;-61
2022/07/22 08:06:29;;;;;;;1999.90;999.90;;;23.50;99.90;;;;;;5095751;28;20197;-62
2022/07/22 08:08:56;;;;;;;1999.90;999.90;;;23.30;99.90;;;;;;5095302;28;20728;-63
2022/07/22 08:11:23;;;;;;;1999.90;999.90;;;23.20;99.90;;;;;;5095512;28;20205;-63
2022/07/22 08:13:52;;;;;;;1999.90;999.90;;;24.10;99.90;;;;;;5095153;28;20209;-63
2022/07/22 08:16:19;;;;;;;1999.90;999.90;;;24.00;99.90;;;;;;5095051;28;20592;-63
2022/07/22 08:18:46;;;;;;;1999.90;999.90;;;24.50;99.90;;;;;;5095430;28;20198;-62
2022/07/22 08:21:13;;;;;;;1999.90;999.90;;;24.20;99.90;;;;;;5095264;28;20217;-62
2022/07/22 08:23:40;;;;;;;1999.90;999.90;;;23.90;99.90;;;;;;5095008;28;20968;-63
2022/07/22 08:26:07;;;;;;;1999.90;999.90;;;23.60;99.90;;;;;;5094933;28;20190;-63
2022/07/22 08:28:35;;;;;;;1999.90;999.90;;;23.10;99.90;;;;;;5093910;28;20206;-62
2022/07/22 08:31:03;;;;;;;1999.90;999.90;;;22.70;99.90;;;;;;5095122;28;20186;-62
2022/07/22 08:33:30;;;;;;;1999.90;999.90;;;22.10;99.90;;;;;;5095315;28;20204;-62
2022/07/22 08:35:57;;;;;;;1999.90;999.90;;;21.80;99.90;;;;;;5094869;28;20194;-61
2022/07/22 08:38:24;;;;;;;1999.90;999.90;;;21.60;99.90;;;;;;5094708;28;20236;-62
2022/07/22 08:40:55;;;;;;;1999.90;999.90;;;21.60;99.90;;;;;;5094898;28;20232;-62
2022/07/22 08:43:22;;;;;;;1999.90;999.90;;;21.40;99.90;;;;;;5094633;28;20178;-62
2022/07/22 08:45:50;;;;;;;1999.90;999.90;;;21.60;99.90;;;;;;5094941;28;20200;-62
2022/07/22 08:48:18;;;;;;;1999.90;999.90;;;21.90;99.90;;;;;;5094621;28;20239;-62
2022/07/22 08:50:45;;;;;;;1999.90;999.90;;;22.80;99.90;;;;;;5094814;28;20187;-62
2022/07/22 08:53:13;;;;;;;1999.90;999.90;;;24.10;99.90;;;;;;5094308;28;20671;-62
2022/07/22 08:55:44;;;;;;;1999.90;999.90;;;24.70;99.90;;;;;;5094371;28;20205;-62
2022/07/22 08:58:11;;;;;;;1999.90;999.90;;;25.50;99.90;;;;;;5094729;28;20206;-62
2022/07/22 09:00:39;;;;;;;1999.90;999.90;;;26.20;72.40;;;;;;5094454;28;20210;-62
2022/07/22 09:03:20;;;;;;;1999.90;999.90;;;26.10;39.80;;;;;;5094182;28;20198;-62
2022/07/22 09:05:47;;;;;;;1999.90;999.90;;;26.70;3.00;;;;;;5094230;28;20537;-62
2022/07/22 09:08:14;;;;;;;1999.90;999.90;;;26.50;1.00;;;;;;5094344;28;20209;-62
2022/07/22 09:10:41;;;;;;;1999.90;999.90;;;26.10;1.00;;;;;;5094303;28;20667;-63
2022/07/22 09:13:10;;;;;;;1999.90;999.90;;;25.20;1.00;;;;;;5094192;28;20205;-62
2022/07/22 09:15:41;;;;;;;1999.90;999.90;;;25.00;1.00;;;;;;5093878;28;20194;-62
2022/07/22 09:18:09;;;;;;;1999.90;999.90;;;25.50;1.00;;;;;;5094101;28;20182;-62
2022/07/22 09:20:38;;;;;;;1999.90;999.90;;;25.50;1.00;;;;;;5094062;28;20291;-62
2022/07/22 09:23:12;;;;;;;1999.90;999.90;;;25.70;1.00;;;;;;5093723;28;20212;-62
2022/07/22 09:25:40;;;;;;;1999.90;999.90;;;24.70;1.00;;;;;;5094064;28;20187;-62
2022/07/22 09:28:13;;;;;;;1999.90;999.90;;;24.00;1.00;;;;;;5093773;28;20227;-62
2022/07/22 09:30:45;;;;;;;1999.90;999.90;;;23.60;1.00;;;;;;5094044;28;20554;-62
2022/07/22 09:33:12;;;;;;;1999.90;999.90;;;23.30;1.00;;;;;;5093848;28;20206;-61
2022/07/22 09:35:41;;;;;;;1999.90;999.90;;;22.90;1.00;;;;;;5093952;28;20198;-61
2022/07/22 09:38:10;;;;;;;1999.90;999.90;;;22.70;1.00;;;;;;5093336;28;20199;-62
2022/07/22 09:40:38;;;;;;;1999.90;999.90;;;22.70;1.00;;;;;;5093542;28;20214;-62
2022/07/22 09:43:11;;;;;;;1999.90;999.90;;;22.80;1.00;;;;;;5093749;28;20186;-62
2022/07/22 09:45:47;;;;;;;1999.90;999.90;;;22.90;1.00;;;;;;5093762;28;20182;-62
2022/07/22 09:48:15;;;;;;;1999.90;999.90;;;22.70;1.00;;;;;;5093440;28;20186;-62
2022/07/22 09:50:43;;;;;;;1999.90;999.90;;;22.50;1.00;;;;;;5093593;28;20198;-62
2022/07/22 09:53:10;;;;;;;1999.90;999.90;;;21.80;1.00;;;;;;5092102;28;20201;-62
2022/07/22 09:55:40;;;;;;;1999.90;999.90;;;21.70;16.90;;;;;;5089856;28;20671;-63
2022/07/22 09:58:08;;;;;;;1999.90;999.90;;;21.80;4.70;;;;;;5093490;28;20202;-62
2022/07/22 10:00:37;;;;;;;1999.90;999.90;;;21.70;19.90;;;;;;5093348;28;20220;-61
2022/07/22 10:03:08;;;;;;;1999.90;999.90;;;22.00;36.10;;;;;;5092688;28;20198;-61
2022/07/22 10:05:38;;;;;;;1999.90;999.90;;;22.30;10.90;;;;;;5085216;28;20235;-61
2022/07/22 10:08:08;;;;;;;1999.90;999.90;;;22.50;15.20;;;;;;5071439;28;20249;-62
2022/07/22 10:10:37;;;;;;;1999.90;999.90;;;22.80;5.50;;;;;;5071576;28;20227;-62
2022/07/22 10:13:05;;;;;;;1999.90;999.90;;;22.80;1.00;;;;;;5072095;28;20226;-62
2022/07/22 10:15:35;;;;;;;1999.90;999.90;;;22.70;1.00;;;;;;5071453;28;20580;-62
2022/07/22 10:18:06;;;;;;;1999.90;999.90;;;22.90;1.00;;;;;;5071976;28;20615;-63
2022/07/22 10:20:34;;;;;;;1999.90;999.90;;;23.70;1.00;;;;;;5071010;28;20277;-63
2022/07/22 10:23:03;;;;;;;1999.90;999.90;;;24.50;1.00;;;;;;5071525;28;20215;-63
2022/07/22 10:25:33;;;;;;;1999.90;999.90;;;24.10;1.00;;;;;;5071457;28;20226;-62
2022/07/22 10:28:03;;;;;;;1999.90;999.90;;;24.20;1.00;;;;;;5072156;28;20222;-62
2022/07/22 10:30:32;;;;;;;1999.90;999.90;;;23.60;1.00;;;;;;5071193;28;20617;-62
2022/07/22 10:33:08;;;;;;;1999.90;999.90;;;23.80;1.00;;;;;;5071596;28;20730;-62
2022/07/22 10:35:37;;;;;;;1999.90;999.90;;;24.80;1.00;;;;;;5072754;28;20271;-62
2022/07/22 10:38:06;;;;;;;1999.90;999.90;;;25.80;1.00;;;;;;5087651;28;20256;-62
2022/07/22 10:40:50;;;;;;;1999.90;999.90;;;25.30;1.00;;;;;;5091429;28;20244;-62
2022/07/22 10:43:17;;;;;;;1999.90;999.90;;;25.40;1.00;;;;;;5079969;28;20355;-62
2022/07/22 10:45:50;;;;;;;1999.90;999.90;;;26.00;1.00;;;;;;5079696;28;20712;-62
2022/07/22 10:48:20;;;;;;;1999.90;999.90;;;26.50;1.00;;;;;;5080815;28;20713;-63
2022/07/22 10:51:08;;;;;;;1999.90;999.90;;;26.80;1.00;;;;;;5081177;28;20228;-62
2022/07/22 10:53:43;;;;;;;1999.90;999.90;;;27.40;1.00;;;;;;5081057;28;20580;-62
2022/07/22 10:56:20;;;;;;;1999.90;999.90;;;26.70;1.00;;;;;;5080589;28;20222;-62
2022/07/22 10:59:10;;;;;;;1999.90;999.90;;;26.10;1.00;;;;;;5080477;28;20219;-61
2022/07/22 11:01:38;;;;;;;1999.90;999.90;;;25.90;1.00;;;;;;5071823;28;20218;-62
2022/07/22 11:04:12;;;;;;;1999.90;999.90;;;25.70;1.00;;;;;;5072238;28;20205;-61
2022/07/22 11:06:39;;;;;;;1999.90;999.90;;;25.30;1.00;;;;;;5072201;28;20183;-62
2022/07/22 11:09:08;;;;;;;1999.90;999.90;;;25.50;1.00;;;;;;5071134;28;20203;-62
2022/07/22 11:11:41;;;;;;;1999.90;999.90;;;26.50;1.00;;;;;;5072217;28;20190;-62
2022/07/22 11:14:20;;;;;;;1999.90;999.90;;;27.60;1.00;;;;;;5072281;28;20197;-62
2022/07/22 11:16:49;;;;;;;1999.90;999.90;;;27.40;1.00;;;;;;5072134;28;20180;-62
2022/07/22 11:19:21;;;;;;;1999.90;999.90;;;27.10;1.00;;;;;;5072221;28;20203;-62
2022/07/22 11:21:51;;;;;;;1999.90;999.90;;;26.20;1.00;;;;;;5071815;28;20647;-61
2022/07/22 11:24:20;;;;;;;1999.90;999.90;;;25.70;1.00;;;;;;5071746;28;20548;-61
2022/07/22 11:26:50;;;;;;;1999.90;999.90;;;25.10;1.00;;;;;;5072162;28;20195;-62
2022/07/22 11:29:19;;;;;;;1999.90;999.90;;;25.00;1.00;;;;;;5071846;28;20195;-62
2022/07/22 11:31:46;;;;;;;1999.90;999.90;;;24.70;1.00;;;;;;5073327;28;20195;-61
2022/07/22 11:34:16;;;;;;;1999.90;999.90;;;25.00;1.00;;;;;;5071754;28;20609;-61
2022/07/22 11:36:45;;;;;;;1999.90;999.90;;;25.00;1.00;;;;;;5071551;28;20569;-62
2022/07/22 11:39:14;;;;;;;1999.90;999.90;;;25.20;1.00;;;;;;5071814;28;20195;-62
2022/07/22 11:41:41;;;;;;;1999.90;999.90;;;25.70;1.00;;;;;;5072027;28;20240;-63
2022/07/22 11:44:10;;;;;;;1999.90;999.90;;;26.20;1.00;;;;;;5071939;28;20199;-63
2022/07/22 11:46:39;;;;;;;1999.90;999.90;;;26.70;1.00;;;;;;5071187;28;20213;-63
2022/07/22 11:49:07;;;;;;;1999.90;999.90;;;26.80;1.00;;;;;;5071789;28;20219;-62
2022/07/22 11:51:36;;;;;;;1999.90;999.90;;;26.60;1.00;;;;;;5071472;28;20606;-63
2022/07/22 11:54:04;;;;;;;1999.90;999.90;;;26.00;1.00;;;;;;5071810;28;20199;-63
2022/07/22 11:56:31;;;;;;;1999.90;999.90;;;25.50;1.00;;;;;;5071652;28;20195;-63
2022/07/22 11:59:02;;;;;;;1999.90;999.90;;;25.50;1.00;;;;;;5071775;28;20217;-62
2022/07/22 12:01:30;;;;;;;1999.90;999.90;;;25.60;1.00;;;;;;5072308;28;20571;-62
2022/07/22 12:03:59;;;;;;;1999.90;999.90;;;25.60;1.00;;;;;;5075418;28;20199;-61
2022/07/22 12:06:27;;;;;;;1999.90;999.90;;;25.60;1.00;;;;;;5075350;28;20199;-62